createdAt,value
2023-04-20T00:04:03.822Z,77.63
2023-04-20T00:09:06.288Z,57.00
2023-04-20T00:14:08.789Z,60.67
2023-04-20T00:19:12.222Z,55.13
2023-04-20T00:24:14.663Z,82.70
2023-04-20T00:29:17.271Z,62.53
2023-04-20T00:34:20.440Z,78.50
2023-04-20T00:39:22.883Z,77.23
2023-04-20T00:44:28.198Z,58.17
2023-04-20T00:49:31.842Z,53.57
2023-04-20T00:54:35.529Z,55.07
2023-04-20T00:59:37.882Z,56.83
2023-04-20T01:04:41.281Z,57.30
2023-04-20T01:09:43.809Z,58.53
2023-04-20T01:14:46.187Z,57.13
2023-04-20T01:19:49.662Z,90.50
2023-04-20T01:24:52.462Z,66.57
2023-04-20T01:29:55.476Z,61.73
2023-04-20T01:34:57.908Z,62.03
2023-04-20T01:40:00.531Z,54.40
2023-04-20T01:45:04.457Z,53.03
2023-04-20T01:50:07.368Z,53.20
2023-04-20T01:55:11.707Z,52.40
2023-04-20T02:00:14.769Z,51.30
2023-04-20T02:05:17.331Z,51.27
2023-04-20T02:10:19.833Z,47.43
2023-04-20T02:15:22.460Z,50.80
2023-04-20T02:20:25.561Z,50.23
2023-04-20T02:25:28.020Z,55.10
2023-04-20T02:30:46.509Z,51.33
2023-04-20T02:35:49.184Z,58.60
2023-04-20T02:40:51.579Z,52.77
2023-04-20T02:45:54.542Z,56.43
2023-04-20T02:50:58.429Z,49.70
2023-04-20T02:56:03.020Z,53.17
2023-04-20T03:01:17.134Z,52.17
2023-04-20T03:06:22.039Z,51.47
2023-04-20T03:11:31.066Z,57.07
2023-04-20T03:16:33.836Z,60.57
2023-04-20T03:21:36.721Z,61.43
2023-04-20T03:26:39.572Z,56.50
2023-04-20T03:31:50.085Z,58.20
2023-04-20T03:36:53.400Z,58.37
2023-04-20T03:41:56.171Z,60.40
2023-04-20T03:46:58.545Z,58.03
2023-04-20T03:52:01.005Z,69.60
2023-04-20T03:57:03.814Z,59.03
2023-04-20T04:02:06.324Z,76.27
2023-04-20T04:07:09.047Z,84.83
2023-04-20T04:12:14.152Z,67.60
2023-04-20T04:17:16.900Z,71.10
2023-04-20T04:22:19.536Z,89.17
2023-04-20T04:27:41.887Z,87.53
2023-04-20T04:32:44.848Z,84.13
2023-04-20T04:37:48.112Z,83.30
2023-04-20T04:42:52.893Z,82.50
2023-04-20T04:47:57.223Z,80.53
2023-04-20T04:52:59.827Z,83.57
2023-04-20T04:58:02.712Z,90.80
2023-04-20T05:03:05.303Z,97.50
2023-04-20T05:08:07.829Z,84.33
2023-04-20T05:13:10.346Z,85.43
2023-04-20T05:18:12.764Z,85.00
2023-04-20T05:23:16.185Z,81.80
2023-04-20T05:28:18.959Z,75.07
2023-04-20T05:33:22.078Z,71.33
2023-04-20T05:38:25.659Z,73.73
2023-04-20T05:43:28.068Z,73.97
2023-04-20T05:48:31.337Z,75.50
2023-04-20T05:53:33.870Z,62.53
2023-04-20T05:58:37.683Z,63.07
2023-04-20T06:03:40.381Z,63.97
2023-04-20T06:08:43.084Z,65.57
2023-04-20T06:13:45.635Z,67.40
2023-04-20T06:18:48.100Z,60.80
2023-04-20T06:23:54.554Z,62.93
2023-04-20T06:28:57.124Z,58.80
2023-04-20T06:34:00.604Z,72.73
